Durand, Michigan
Current Conditions -  °F | °C
As of 3:34 AM on Monday 24 Nov 2014 (Local Time) from KRNP Reporting Station
Moderate Rain Moderate Rain  
Wind Chill: 53°   Ceiling: 2500
Heat Index: 53°   Visibility: 10mi
Dew Point: 53°   Wind: 12mph
Humidity: 98%   Direction: 180°S
Pressure: 29"   Gusts: 16mph
Location:  42.91°N, 83.98°W
Report Text: KRNP 240834Z AUTO 18010G14KT 10SM RA SCT015 BKN025 OVC050 12/12 A2900 RMK AO2 T01180115
Loading
Personal Weather Stations






























Interactive Weather Map New forecast layout! Learn more

10-Day Weather Forecast

Advertisements
Track Severe Weather on mobile